Time;durP1;ratioP1;P1;durP2;ratioP2;P2;SDS_P1;SDS_P2;PMS_P1;PMS_P2;Temp;Humidity;BMP_temperature;BMP_pressure;BME280_temperature;BME280_humidity;BME280_pressure;Samples;Min_cycle;Max_cycle;Signal;HPM_P1;HPM_P2
2021/07/12 00:00:40;;;;;;;7.97;6.80;;;;;;;17.68;100.00;100736.19;5015813;28;20560;-74
2021/07/12 00:03:07;;;;;;;8.30;6.97;;;;;;;17.67;100.00;100731.00;5013669;28;20197;-72
2021/07/12 00:05:34;;;;;;;7.70;6.90;;;;;;;17.62;100.00;100733.03;5013861;28;20216;-73
2021/07/12 00:08:01;;;;;;;7.43;6.63;;;;;;;17.60;100.00;100736.59;5012948;28;20212;-74
2021/07/12 00:10:29;;;;;;;7.03;6.33;;;;;;;17.62;100.00;100736.50;5012650;28;20307;-73
2021/07/12 00:12:56;;;;;;;7.93;7.13;;;;;;;17.60;100.00;100731.31;5015203;28;20208;-73
2021/07/12 00:15:26;;;;;;;8.67;7.07;;;;;;;17.58;100.00;100730.53;5009269;28;20255;-74
2021/07/12 00:17:53;;;;;;;7.33;6.40;;;;;;;17.55;100.00;100728.09;5013613;28;20204;-73
2021/07/12 00:20:20;;;;;;;7.13;6.43;;;;;;;17.55;100.00;100732.50;5010828;28;20201;-72
2021/07/12 00:22:47;;;;;;;7.97;6.97;;;;;;;17.49;100.00;100735.47;5001283;28;20682;-74
2021/07/12 00:25:15;;;;;;;7.17;6.47;;;;;;;17.48;100.00;100725.84;5011988;28;20236;-74
2021/07/12 00:27:42;;;;;;;7.40;6.40;;;;;;;17.47;100.00;100725.00;5017829;28;20267;-72
2021/07/12 00:30:12;;;;;;;6.70;6.00;;;;;;;17.44;100.00;100721.69;5012515;28;20811;-73
2021/07/12 00:32:40;;;;;;;7.67;6.77;;;;;;;17.44;100.00;100724.31;5012513;28;20210;-73
2021/07/12 00:35:09;;;;;;;7.30;6.30;;;;;;;17.43;100.00;100712.94;5010883;28;20224;-73
2021/07/12 00:37:35;;;;;;;6.93;6.23;;;;;;;17.38;100.00;100709.69;5013901;28;20296;-73
2021/07/12 00:40:04;;;;;;;8.67;6.23;;;;;;;17.38;100.00;100705.28;5009785;28;20714;-72
2021/07/12 00:42:31;;;;;;;7.60;6.77;;;;;;;17.38;100.00;100709.69;5011246;28;20661;-74
2021/07/12 00:44:58;;;;;;;7.43;6.03;;;;;;;17.37;100.00;100708.81;5010049;28;20256;-73
2021/07/12 00:47:25;;;;;;;6.50;5.90;;;;;;;17.34;100.00;100700.22;5008766;28;20203;-73
2021/07/12 00:49:53;;;;;;;6.47;5.73;;;;;;;17.33;100.00;100701.19;5013561;28;20215;-74
2021/07/12 00:52:19;;;;;;;6.87;6.20;;;;;;;17.33;100.00;100698.53;5011770;28;20199;-74
2021/07/12 00:54:46;;;;;;;8.53;6.67;;;;;;;17.35;100.00;100701.94;5010242;28;20224;-74
2021/07/12 00:57:13;;;;;;;7.73;6.93;;;;;;;17.35;100.00;100707.22;5009134;28;20209;-73
2021/07/12 00:59:40;;;;;;;7.20;6.50;;;;;;;17.30;100.00;100699.53;5005445;28;20658;-74
2021/07/12 01:02:07;;;;;;;7.00;6.27;;;;;;;17.26;100.00;100692.75;5008176;28;20299;-73
2021/07/12 01:04:35;;;;;;;6.20;5.60;;;;;;;17.25;100.00;100693.66;5008464;28;20713;-74
2021/07/12 01:07:10;;;;;;;7.70;5.83;;;;;;;17.27;100.00;100701.50;5006522;28;20233;-74
2021/07/12 01:09:36;;;;;;;8.13;6.70;;;;;;;17.21;100.00;100707.94;5013692;28;20200;-73
2021/07/12 01:12:11;;;;;;;7.77;6.97;;;;;;;17.20;100.00;100698.31;5007637;28;20204;-74
2021/07/12 01:14:44;;;;;;;7.00;6.30;;;;;;;17.21;100.00;100700.03;5011885;28;20738;-74
2021/07/12 01:17:27;;;;;;;8.67;7.07;;;;;;;17.16;100.00;100697.63;5008184;28;20228;-72
2021/07/12 01:20:08;;;;;;;6.87;6.13;;;;;;;17.18;100.00;100695.81;5005797;28;20574;-73
2021/07/12 01:22:59;;;;;;;7.17;6.47;;;;;;;17.22;100.00;100709.66;5009649;28;20211;-72
2021/07/12 01:26:08;;;;;;;7.40;6.70;;;;;;;17.23;100.00;100711.34;5010684;28;20327;-74
2021/07/12 01:29:17;;;;;;;7.10;6.20;;;;;;;17.25;100.00;100706.84;5003418;28;20212;-74
2021/07/12 01:32:25;;;;;;;7.73;6.67;;;;;;;17.19;100.00;100704.53;4968545;28;20569;-74
2021/07/12 01:35:03;;;;;;;7.20;6.33;;;;;;;17.18;100.00;100702.81;5012794;28;20724;-72
2021/07/12 01:37:40;;;;;;;8.17;6.93;;;;;;;17.17;100.00;100707.25;5006817;28;20199;-73
2021/07/12 01:40:10;;;;;;;7.73;6.63;;;;;;;17.14;100.00;100709.19;5011068;28;20207;-73
2021/07/12 01:42:42;;;;;;;8.07;7.03;;;;;;;17.10;100.00;100710.31;5008227;28;20211;-73
2021/07/12 01:45:12;;;;;;;8.20;6.67;;;;;;;17.10;100.00;100697.97;5008826;28;20225;-73
2021/07/12 01:47:50;;;;;;;9.33;7.10;;;;;;;17.14;100.00;100703.94;5008429;28;20267;-74
2021/07/12 01:50:26;;;;;;;9.53;6.27;;;;;;;17.06;100.00;100706.94;5025498;28;20197;-73
2021/07/12 01:53:10;;;;;;;9.20;6.40;;;;;;;17.00;100.00;100694.94;5008613;28;20267;-72
2021/07/12 01:55:49;;;;;;;7.90;6.90;;;;;;;17.03;100.00;100702.69;5007247;28;20228;-74
2021/07/12 01:58:22;;;;;;;10.37;6.73;;;;;;;17.00;100.00;100696.75;5010592;28;20212;-72
2021/07/12 02:00:51;;;;;;;8.83;7.00;;;;;;;17.01;100.00;100699.31;5014817;28;20191;-74
2021/07/12 02:03:21;;;;;;;7.13;6.43;;;;;;;17.00;100.00;100699.38;5010148;28;20654;-73
2021/07/12 02:05:51;;;;;;;7.70;6.90;;;;;;;16.98;100.00;100704.72;5012843;28;20597;-72
2021/07/12 02:08:21;;;;;;;8.67;7.77;;;;;;;16.97;100.00;100700.41;5016672;28;20329;-72
2021/07/12 02:10:51;;;;;;;8.80;7.30;;;;;;;16.93;100.00;100700.63;5012585;28;20209;-72
2021/07/12 02:13:22;;;;;;;8.47;7.63;;;;;;;16.87;100.00;100691.28;5010589;28;20215;-72
2021/07/12 02:16:06;;;;;;;9.00;7.70;;;;;;;16.84;100.00;100689.63;5013241;28;20227;-72
2021/07/12 02:18:38;;;;;;;8.70;7.80;;;;;;;16.77;100.00;100690.00;5008108;28;20232;-72
2021/07/12 02:21:17;;;;;;;7.57;6.83;;;;;;;16.71;100.00;100698.19;5006875;28;20286;-72
2021/07/12 02:23:48;;;;;;;8.03;7.23;;;;;;;16.73;100.00;100699.84;5013026;28;20296;-72
2021/07/12 02:26:16;;;;;;;9.70;8.20;;;;;;;16.70;100.00;100709.66;4999794;28;20197;-72
2021/07/12 02:28:45;;;;;;;8.03;7.23;;;;;;;16.69;100.00;100702.69;5008946;28;20208;-72
2021/07/12 02:31:14;;;;;;;11.17;9.07;;;;;;;16.69;100.00;100705.31;5003460;28;20740;-72
2021/07/12 02:33:43;;;;;;;8.90;7.77;;;;;;;16.61;100.00;100697.81;5012520;28;20211;-72
2021/07/12 02:36:10;;;;;;;9.57;7.90;;;;;;;16.55;100.00;100695.47;5006488;28;20212;-72
2021/07/12 02:38:39;;;;;;;7.70;6.87;;;;;;;16.59;100.00;100694.41;5008847;28;20197;-72
2021/07/12 02:41:06;;;;;;;10.80;8.27;;;;;;;16.55;100.00;100692.84;5008414;28;20196;-72
2021/07/12 02:43:36;;;;;;;11.63;7.00;;;;;;;16.52;100.00;100693.88;5010236;28;20302;-72
2021/07/12 02:46:05;;;;;;;8.67;7.73;;;;;;;16.52;100.00;100688.59;5008959;28;20300;-72
2021/07/12 02:48:32;;;;;;;9.60;8.13;;;;;;;16.48;100.00;100687.06;5008242;28;20204;-72
2021/07/12 02:51:03;;;;;;;9.80;8.17;;;;;;;16.50;100.00;100685.19;5009761;28;20205;-72
2021/07/12 02:53:34;;;;;;;11.00;8.43;;;;;;;16.53;100.00;100687.66;5003412;28;20211;-72
2021/07/12 02:56:02;;;;;;;9.37;8.47;;;;;;;16.53;100.00;100692.06;5004294;28;20228;-72
2021/07/12 02:58:32;;;;;;;8.90;8.00;;;;;;;16.58;100.00;100695.34;5005026;28;20202;-72
2021/07/12 03:00:59;;;;;;;9.30;8.40;;;;;;;16.64;100.00;100695.88;5006017;28;20212;-72
2021/07/12 03:03:28;;;;;;;10.10;8.70;;;;;;;16.66;100.00;100688.75;5007114;28;20739;-72
2021/07/12 03:06:00;;;;;;;10.37;9.27;;;;;;;16.64;100.00;100692.41;5007048;28;20221;-72
2021/07/12 03:08:36;;;;;;;11.83;10.00;;;;;;;16.70;100.00;100694.72;5010009;28;20200;-72
2021/07/12 03:11:09;;;;;;;11.77;10.27;;;;;;;16.71;100.00;100691.16;5000781;28;20205;-72
2021/07/12 03:13:46;;;;;;;11.13;9.87;;;;;;;16.71;100.00;100687.66;5009559;28;20665;-72
2021/07/12 03:16:14;;;;;;;12.07;8.80;;;;;;;16.74;100.00;100692.78;5010776;28;20753;-72
2021/07/12 03:18:45;;;;;;;12.47;10.33;;;;;;;16.78;100.00;100694.31;5014402;28;20201;-72
2021/07/12 03:21:13;;;;;;;12.57;10.57;;;;;;;16.79;100.00;100696.88;5007563;28;20350;-72
2021/07/12 03:23:43;;;;;;;11.47;10.27;;;;;;;16.79;100.00;100680.22;5002803;28;20235;-72
2021/07/12 03:26:12;;;;;;;11.43;10.10;;;;;;;16.76;100.00;100683.88;5015020;28;20233;-72
2021/07/12 03:28:41;;;;;;;10.60;9.47;;;;;;;16.76;100.00;100688.28;5011306;28;20199;-72
2021/07/12 03:31:10;;;;;;;12.27;9.47;;;;;;;16.77;100.00;100690.00;5005469;28;20712;-72
2021/07/12 03:33:41;;;;;;;11.17;9.50;;;;;;;16.78;100.00;100683.78;5011666;28;20351;-72
2021/07/12 03:36:09;;;;;;;13.57;9.67;;;;;;;16.80;100.00;100692.47;5007620;28;20229;-72
2021/07/12 03:38:39;;;;;;;12.80;9.67;;;;;;;16.82;100.00;100686.19;5011521;28;20692;-72
2021/07/12 03:41:09;;;;;;;12.03;10.20;;;;;;;16.88;100.00;100692.09;5002425;28;20206;-72
2021/07/12 03:43:39;;;;;;;12.20;10.13;;;;;;;16.90;100.00;100691.09;5012872;28;20201;-72
2021/07/12 03:46:06;;;;;;;14.00;11.17;;;;;;;16.91;100.00;100690.16;5006228;28;20297;-72
2021/07/12 03:48:39;;;;;;;13.50;11.20;;;;;;;16.93;100.00;100684.81;5011286;28;20636;-72
2021/07/12 03:51:13;;;;;;;12.17;10.47;;;;;;;16.97;100.00;100689.00;5013075;28;20212;-72
2021/07/12 03:53:43;;;;;;;12.63;10.90;;;;;;;17.04;100.00;100693.00;5005111;28;20239;-72
2021/07/12 03:56:11;;;;;;;11.57;10.37;;;;;;;17.06;100.00;100691.13;5005582;28;20710;-72
2021/07/12 03:58:38;;;;;;;12.77;11.40;;;;;;;17.11;100.00;100694.38;5015505;28;20206;-72
2021/07/12 04:01:05;;;;;;;12.10;10.67;;;;;;;17.14;100.00;100686.34;5003460;28;20211;-72
2021/07/12 04:03:31;;;;;;;13.23;10.40;;;;;;;17.17;100.00;100680.91;5008493;28;20200;-72
2021/07/12 04:05:58;;;;;;;13.37;10.80;;;;;;;17.20;100.00;100686.03;5017090;28;20228;-72
2021/07/12 04:08:25;;;;;;;12.93;10.93;;;;;;;17.23;100.00;100674.47;5018499;28;20423;-72
2021/07/12 04:10:51;;;;;;;13.77;10.67;;;;;;;17.26;100.00;100676.09;5013717;28;20579;-72
2021/07/12 04:13:19;;;;;;;12.97;10.90;;;;;;;17.25;100.00;100672.59;5009423;28;20213;-72
2021/07/12 04:15:46;;;;;;;11.83;10.07;;;;;;;17.22;100.00;100681.53;5008525;28;20674;-73
2021/07/12 04:18:12;;;;;;;13.07;10.27;;;;;;;17.26;100.00;100679.56;4999757;28;20207;-72
2021/07/12 04:20:41;;;;;;;11.37;9.93;;;;;;;17.24;100.00;100668.28;5010384;28;20715;-72
2021/07/12 04:23:08;;;;;;;10.80;9.57;;;;;;;17.28;100.00;100667.16;5011942;28;20240;-72
2021/07/12 04:25:35;;;;;;;11.00;9.83;;;;;;;17.35;100.00;100671.16;5012473;28;20225;-72
2021/07/12 04:28:01;;;;;;;12.60;10.00;;;;;;;17.35;100.00;100672.97;5013175;28;20209;-72
2021/07/12 04:30:29;;;;;;;10.90;9.80;;;;;;;17.35;100.00;100667.69;5002808;28;20208;-72
2021/07/12 04:32:55;;;;;;;10.93;9.80;;;;;;;17.44;100.00;100668.97;5007883;28;20215;-72
2021/07/12 04:35:22;;;;;;;11.23;10.13;;;;;;;17.49;100.00;100659.88;5016763;28;20224;-72
2021/07/12 04:37:48;;;;;;;10.30;9.20;;;;;;;17.53;100.00;100664.03;5007559;28;20697;-72
2021/07/12 04:40:16;;;;;;;11.17;9.37;;;;;;;17.58;100.00;100656.72;5006590;28;20201;-72
2021/07/12 04:42:43;;;;;;;11.33;10.13;;;;;;;17.68;100.00;100657.09;5009943;28;20276;-72
2021/07/12 04:45:11;;;;;;;12.10;10.77;;;;;;;17.80;100.00;100639.75;5007678;28;20220;-73
2021/07/12 04:47:41;;;;;;;12.97;11.57;;;;;;;18.00;100.00;100648.34;5012469;28;20265;-72
2021/07/12 04:50:08;;;;;;;12.83;11.40;;;;;;;18.22;100.00;100651.44;5009650;28;20207;-72
2021/07/12 04:52:36;;;;;;;11.97;9.60;;;;;;;18.37;100.00;100655.00;5005426;28;20197;-72
2021/07/12 04:55:06;;;;;;;11.40;9.73;;;;;;;18.37;100.00;100654.16;5012852;28;20272;-72
2021/07/12 04:57:32;;;;;;;10.93;8.97;;;;;;;18.41;100.00;100659.13;5005284;28;20291;-72
2021/07/12 05:00:01;;;;;;;10.43;9.27;;;;;;;18.51;100.00;100656.81;5010620;28;20219;-72
2021/07/12 05:02:27;;;;;;;10.37;9.37;;;;;;;18.69;100.00;100658.38;5008015;28;20591;-72
2021/07/12 05:04:55;;;;;;;10.17;8.73;;;;;;;18.94;100.00;100667.47;5009854;28;20600;-73
2021/07/12 05:07:21;;;;;;;8.77;7.60;;;;;;;18.98;100.00;100661.09;5012686;28;20204;-72
2021/07/12 05:09:48;;;;;;;8.67;7.83;;;;;;;18.94;100.00;100648.16;5008187;28;20650;-72
2021/07/12 05:12:16;;;;;;;8.53;7.43;;;;;;;18.87;100.00;100655.59;5010918;28;20997;-72
2021/07/12 05:14:42;;;;;;;9.33;7.40;;;;;;;18.84;100.00;100645.22;5008600;28;20262;-73
2021/07/12 05:17:11;;;;;;;8.23;7.40;;;;;;;18.85;100.00;100649.56;5006390;28;20216;-72
2021/07/12 05:19:38;;;;;;;8.00;6.83;;;;;;;18.83;100.00;100649.66;5008893;28;20204;-73
2021/07/12 05:22:06;;;;;;;10.20;7.17;;;;;;;18.91;100.00;100655.31;5007986;28;20209;-72
2021/07/12 05:24:32;;;;;;;8.87;7.27;;;;;;;18.88;100.00;100658.16;5007190;28;20225;-72
2021/07/12 05:26:59;;;;;;;10.00;7.50;;;;;;;18.91;100.00;100660.59;5004485;28;20188;-72
2021/07/12 05:29:25;;;;;;;8.70;7.30;;;;;;;18.91;100.00;100665.91;5008073;28;20196;-72
2021/07/12 05:31:51;;;;;;;8.10;6.77;;;;;;;18.91;100.00;100660.59;5004106;28;20205;-72
2021/07/12 05:34:18;;;;;;;8.00;7.20;;;;;;;18.89;100.00;100659.00;5005029;28;20236;-72
2021/07/12 05:36:45;;;;;;;8.30;7.43;;;;;;;18.87;100.00;100667.03;5007773;28;20212;-72
2021/07/12 05:39:13;;;;;;;8.50;7.10;;;;;;;18.82;100.00;100662.94;5005912;28;20199;-72
2021/07/12 05:41:40;;;;;;;9.17;7.37;;;;;;;18.78;100.00;100661.41;5004153;28;20196;-72
2021/07/12 05:44:06;;;;;;;8.53;7.63;;;;;;;18.78;100.00;100658.75;5010079;28;20225;-72
2021/07/12 05:46:33;;;;;;;10.60;9.33;;;;;;;18.76;100.00;100665.94;5012194;28;20197;-72
2021/07/12 05:48:59;;;;;;;9.47;8.47;;;;;;;18.77;100.00;100673.78;5010606;28;20201;-72
2021/07/12 05:51:26;;;;;;;10.60;9.20;;;;;;;18.81;100.00;100663.88;5004955;28;20205;-73
2021/07/12 05:53:52;;;;;;;10.10;9.07;;;;;;;18.83;100.00;100668.13;5008372;28;20205;-72
2021/07/12 05:56:20;;;;;;;13.57;10.23;;;;;;;18.91;100.00;100662.41;5009933;28;20235;-73
2021/07/12 05:58:47;;;;;;;10.50;9.40;;;;;;;18.95;100.00;100668.34;5005726;28;20192;-72
2021/07/12 06:01:16;;;;;;;11.13;9.80;;;;;;;18.87;100.00;100668.81;5000926;28;20208;-72
2021/07/12 06:03:42;;;;;;;10.80;9.27;;;;;;;18.87;100.00;100666.16;5012890;28;20200;-72
2021/07/12 06:06:09;;;;;;;10.30;9.27;;;;;;;18.87;100.00;100667.03;5002975;28;20196;-73
2021/07/12 06:08:35;;;;;;;10.97;9.83;;;;;;;18.87;100.00;100680.25;5000578;28;20708;-73
2021/07/12 06:11:02;;;;;;;13.10;10.20;;;;;;;18.81;100.00;100682.34;5006827;28;20201;-73
2021/07/12 06:13:30;;;;;;;13.50;10.33;;;;;;;18.79;100.00;100678.97;5012575;28;20199;-72
2021/07/12 06:15:56;;;;;;;11.03;9.77;;;;;;;18.80;100.00;100678.84;5008961;28;20232;-72
2021/07/12 06:18:22;;;;;;;13.47;10.53;;;;;;;18.87;100.00;100676.72;5009831;28;20204;-72
2021/07/12 06:20:49;;;;;;;12.50;10.13;;;;;;;18.94;100.00;100680.69;5007817;28;20200;-73
2021/07/12 06:23:15;;;;;;;11.30;10.07;;;;;;;19.00;100.00;100674.22;5009904;28;20578;-73
2021/07/12 06:25:41;;;;;;;11.03;9.77;;;;;;;19.00;100.00;100669.78;5004162;28;20732;-72
2021/07/12 06:28:08;;;;;;;13.23;10.50;;;;;;;19.09;100.00;100671.00;5008992;28;20224;-73
2021/07/12 06:30:36;;;;;;;12.97;10.13;;;;;;;19.21;100.00;100669.41;5006971;28;20257;-73
2021/07/12 06:33:03;;;;;;;12.77;10.20;;;;;;;19.27;100.00;100663.72;5006484;28;20208;-72
2021/07/12 06:35:29;;;;;;;11.50;10.03;;;;;;;19.39;100.00;100665.59;5003507;28;20603;-72
2021/07/12 06:37:56;;;;;;;11.20;9.47;;;;;;;19.37;100.00;100664.03;5013534;28;20216;-72
2021/07/12 06:40:22;;;;;;;9.67;8.67;;;;;;;19.48;100.00;100665.03;5006633;28;20204;-72
2021/07/12 06:42:49;;;;;;;10.77;9.50;;;;;;;19.51;100.00;100664.00;5006990;28;20209;-73
2021/07/12 06:45:18;;;;;;;10.33;8.97;;;;;;;19.58;100.00;100661.81;4999120;28;20256;-73
2021/07/12 06:47:48;;;;;;;9.80;8.80;;;;;;;19.51;100.00;100658.72;5004933;28;20596;-72
2021/07/12 06:50:16;;;;;;;9.40;8.30;;;;;;;19.56;100.00;100663.69;5004560;28;20623;-73
2021/07/12 06:52:43;;;;;;;9.67;8.53;;;;;;;19.55;100.00;100660.22;5009901;28;20205;-72
2021/07/12 06:55:10;;;;;;;10.00;8.63;;;;;;;19.51;100.00;100657.84;5012311;28;20228;-73
2021/07/12 06:57:36;;;;;;;9.70;8.70;;;;;;;19.47;100.00;100646.59;5009317;28;20664;-73
2021/07/12 07:00:05;;;;;;;10.50;8.60;;;;;;;19.54;100.00;100637.38;5015954;28;20299;-72
2021/07/12 07:02:35;;;;;;;12.67;10.03;;;;;;;19.52;100.00;100633.94;5011172;28;20278;-73
2021/07/12 07:05:09;;;;;;;16.07;10.30;;;;;;;19.53;100.00;100640.94;5014047;28;20689;-73
2021/07/12 07:07:36;;;;;;;11.97;10.60;;;;;;;19.60;100.00;100639.63;5012040;28;20607;-73
2021/07/12 07:10:04;;;;;;;12.80;10.67;;;;;;;19.73;100.00;100641.47;5013083;28;20220;-73
2021/07/12 07:12:32;;;;;;;11.90;10.47;;;;;;;19.80;100.00;100648.94;5008765;28;20650;-72
2021/07/12 07:14:59;;;;;;;12.80;11.20;;;;;;;19.82;100.00;100646.19;5011832;28;20251;-73
2021/07/12 07:17:25;;;;;;;14.87;10.70;;;;;;;19.80;100.00;100653.38;5015108;28;20311;-72
2021/07/12 07:19:52;;;;;;;13.53;10.07;;;;;;;19.78;100.00;100650.84;5007987;28;20254;-73
2021/07/12 07:22:19;;;;;;;11.97;10.03;;;;;;;19.89;100.00;100649.28;5009462;28;20208;-73
2021/07/12 07:24:49;;;;;;;13.47;10.67;;;;;;;19.95;100.00;100644.47;5009620;28;20295;-73
2021/07/12 07:27:17;;;;;;;12.43;10.00;;;;;;;20.03;100.00;100636.00;5010008;28;20279;-73
2021/07/12 07:29:44;;;;;;;11.37;9.63;;;;;;;20.18;100.00;100631.53;5001152;28;20532;-73
2021/07/12 07:32:10;;;;;;;10.23;9.10;;;;;;;20.26;100.00;100642.44;5013413;28;20235;-73
2021/07/12 07:34:36;;;;;;;11.20;9.60;;;;;;;20.26;100.00;100638.94;5007789;28;20587;-73
2021/07/12 07:37:03;;;;;;;12.83;9.30;;;;;;;20.29;100.00;100631.63;5012301;28;20227;-73
2021/07/12 07:39:31;;;;;;;11.13;9.37;;;;;;;20.31;100.00;100623.59;5008175;28;20201;-73
2021/07/12 07:41:58;;;;;;;10.43;9.43;;;;;;;20.47;100.00;100618.13;5007792;28;20695;-73
2021/07/12 07:44:25;;;;;;;9.60;8.53;;;;;;;20.58;98.99;100627.03;5009337;28;20319;-73
2021/07/12 07:46:51;;;;;;;11.47;8.77;;;;;;;20.75;98.73;100625.06;5010400;28;20618;-73
2021/07/12 07:49:18;;;;;;;9.43;8.43;;;;;;;20.91;97.98;100624.84;5008696;28;20208;-73
2021/07/12 07:51:44;;;;;;;11.53;7.77;;;;;;;20.97;95.85;100622.63;5012060;28;20250;-73
2021/07/12 07:54:11;;;;;;;8.30;7.40;;;;;;;21.13;96.06;100625.03;5006700;28;20217;-73
2021/07/12 07:56:39;;;;;;;8.00;7.20;;;;;;;21.21;94.62;100623.66;5013287;28;20712;-73
2021/07/12 07:59:06;;;;;;;8.20;7.40;;;;;;;21.25;93.38;100625.97;5003809;28;20200;-73
2021/07/12 08:01:33;;;;;;;8.03;7.23;;;;;;;21.55;95.56;100628.28;5009786;28;20288;-73
2021/07/12 08:03:59;;;;;;;8.27;7.47;;;;;;;21.67;93.91;100628.31;5006291;28;20779;-73
2021/07/12 08:06:26;;;;;;;7.47;6.73;;;;;;;21.76;94.98;100627.69;5007105;28;20863;-73
2021/07/12 08:08:52;;;;;;;5.17;4.67;;;;;;;21.73;86.20;100638.50;5003584;28;20212;-73
2021/07/12 08:11:19;;;;;;;6.30;5.30;;;;;;;21.96;89.01;100636.81;5007059;28;20563;-73
2021/07/12 08:13:47;;;;;;;6.10;5.50;;;;;;;21.96;89.08;100630.66;5008690;28;20207;-73
2021/07/12 08:16:13;;;;;;;4.90;4.40;;;;;;;21.95;89.55;100629.81;5010636;28;20204;-73
2021/07/12 08:18:40;;;;;;;5.05;4.65;;;;;;;21.93;87.80;100632.59;5008964;28;20220;-73
2021/07/12 08:21:08;;;;;;;5.55;4.57;;;;;;;21.94;84.63;100638.75;5008873;28;20521;-73
2021/07/12 08:23:34;;;;;;;5.03;4.53;;;;;;;22.01;87.96;100628.53;5006078;28;20243;-73
2021/07/12 08:26:00;;;;;;;4.80;4.40;;;;;;;22.16;87.93;100629.19;5010567;28;20667;-73
2021/07/12 08:28:27;;;;;;;4.60;4.20;;;;;;;22.39;86.08;100628.34;5010238;28;20184;-73
2021/07/12 08:30:56;;;;;;;5.95;4.53;;;;;;;22.63;82.77;100633.56;5006536;28;20295;-73
2021/07/12 08:33:23;;;;;;;4.43;3.72;;;;;;;22.46;78.75;100634.88;5006019;28;20408;-73
2021/07/12 08:35:49;;;;;;;4.07;3.70;;;;;;;22.38;83.43;100626.63;5004071;28;20874;-73
2021/07/12 08:38:16;;;;;;;4.65;4.25;;;;;;;22.44;81.21;100627.97;5005734;28;20247;-73
2021/07/12 08:40:42;;;;;;;4.60;4.20;;;;;;;22.41;81.17;100628.19;5011035;28;20686;-73
2021/07/12 08:43:09;;;;;;;4.28;3.97;;;;;;;22.34;78.65;100637.59;5002705;28;20220;-73
2021/07/12 08:45:36;;;;;;;4.97;3.78;;;;;;;22.41;79.60;100636.16;5009570;28;20221;-73
2021/07/12 08:48:05;;;;;;;4.57;3.90;;;;;;;22.60;78.75;100644.44;5000576;28;20352;-73
2021/07/12 08:50:32;;;;;;;4.78;4.38;;;;;;;22.58;80.70;100626.91;5008292;28;20291;-73
2021/07/12 08:52:58;;;;;;;5.93;5.18;;;;;;;22.60;82.55;100628.50;5007516;28;20197;-73
2021/07/12 08:55:26;;;;;;;5.35;4.85;;;;;;;22.60;83.41;100624.97;5004265;28;20731;-73
2021/07/12 08:57:58;;;;;;;4.75;4.35;;;;;;;22.43;78.23;100635.09;5010591;28;20235;-73
2021/07/12 09:00:40;;;;;;;5.75;5.25;;;;;;;22.63;85.86;100619.44;5001499;28;20576;-73
2021/07/12 09:03:18;;;;;;;5.68;5.18;;;;;;;22.60;83.00;100620.53;5005121;28;20211;-73
2021/07/12 09:05:57;;;;;;;5.75;5.25;;;;;;;22.58;82.05;100625.09;5008382;28;20728;-73
2021/07/12 09:08:44;;;;;;;7.57;5.70;;;;;;;22.53;84.53;100618.44;5012818;28;20188;-73
2021/07/12 09:11:14;;;;;;;6.65;6.05;;;;;;;22.39;84.94;100614.19;5006889;28;20224;-73
2021/07/12 09:13:46;;;;;;;5.85;5.35;;;;;;;22.48;84.87;100608.19;5007113;28;20212;-73
2021/07/12 09:16:41;;;;;;;7.07;5.93;;;;;;;22.74;85.09;100616.78;5002653;28;20228;-73
2021/07/12 09:19:12;;;;;;;5.85;5.15;;;;;;;22.82;81.95;100619.72;5005188;28;20230;-73
2021/07/12 09:21:41;;;;;;;5.75;5.25;;;;;;;22.93;83.47;100610.06;5008495;28;20287;-73
2021/07/12 09:24:20;;;;;;;5.93;5.20;;;;;;;22.98;81.44;100607.88;5010304;28;20224;-73
2021/07/12 09:26:49;;;;;;;5.30;4.80;;;;;;;23.08;80.12;100611.53;5004743;28;20211;-73
2021/07/12 09:29:21;;;;;;;5.63;5.10;;;;;;;23.17;80.42;100612.63;5003240;28;20201;-73
2021/07/12 09:31:49;;;;;;;5.30;4.80;;;;;;;23.27;78.24;100605.63;5005287;28;20212;-73
2021/07/12 09:34:18;;;;;;;5.57;5.07;;;;;;;23.50;77.97;100602.91;5005192;28;20701;-73
2021/07/12 09:36:45;;;;;;;6.28;5.68;;;;;;;23.74;79.96;100595.56;4999898;28;20200;-73
2021/07/12 09:39:26;;;;;;;5.88;5.38;;;;;;;23.55;76.85;100595.38;5002043;28;20220;-73
2021/07/12 09:41:54;;;;;;;5.97;5.47;;;;;;;23.45;76.08;100605.94;5002642;28;20245;-73
2021/07/12 09:44:24;;;;;;;7.13;6.43;;;;;;;23.36;78.90;100596.88;5000533;28;20212;-73
2021/07/12 09:46:51;;;;;;;6.53;5.90;;;;;;;23.32;78.56;100600.75;5004620;28;20215;-73
2021/07/12 09:49:22;;;;;;;6.90;6.30;;;;;;;23.42;79.19;100595.53;5000071;28;20570;-73
2021/07/12 09:51:53;;;;;;;6.10;5.60;;;;;;;23.31;79.80;100590.25;5003953;28;20283;-73
2021/07/12 09:54:22;;;;;;;5.85;5.35;;;;;;;23.27;78.72;100597.63;5007242;28;20224;-73
2021/07/12 09:56:50;;;;;;;8.15;5.95;;;;;;;23.22;78.30;100594.50;5001820;28;20535;-73
2021/07/12 09:59:18;;;;;;;6.65;6.05;;;;;;;23.25;78.57;100595.09;4995903;28;20785;-73
2021/07/12 10:01:46;;;;;;;5.88;5.38;;;;;;;23.36;79.12;100590.69;4999522;28;20198;-73
2021/07/12 10:04:14;;;;;;;6.55;5.95;;;;;;;23.34;76.91;100595.31;4998321;28;20272;-73
2021/07/12 10:06:43;;;;;;;6.63;6.03;;;;;;;23.90;79.19;100589.03;5004177;28;20279;-73
2021/07/12 10:09:10;;;;;;;6.10;5.53;;;;;;;24.10;73.77;100592.69;5006391;28;20212;-73
2021/07/12 10:11:36;;;;;;;8.15;5.78;;;;;;;24.25;74.54;100598.53;5005026;28;20691;-73
2021/07/12 10:14:03;;;;;;;6.10;5.60;;;;;;;24.10;70.86;100595.38;5002891;28;20232;-73
2021/07/12 10:16:30;;;;;;;6.35;5.75;;;;;;;24.10;71.46;100593.53;5007212;28;20204;-73
2021/07/12 10:18:57;;;;;;;6.10;5.50;;;;;;;23.89;71.87;100585.53;5001293;28;20256;-73
2021/07/12 10:21:23;;;;;;;6.68;6.05;;;;;;;23.94;74.44;100585.13;5010767;28;20195;-73
2021/07/12 10:23:57;;;;;;;5.57;5.05;;;;;;;24.00;74.41;100576.63;5009153;28;20575;-73
2021/07/12 10:26:44;;;;;;;6.78;6.15;;;;;;;24.19;74.83;100575.94;5010625;28;20478;-73
2021/07/12 10:29:11;;;;;;;6.07;5.47;;;;;;;24.34;73.13;100576.44;5008343;28;20812;-73
2021/07/12 10:31:54;;;;;;;6.40;5.80;;;;;;;24.46;73.00;100575.41;5012209;28;20213;-73
2021/07/12 10:34:25;;;;;;;5.70;5.20;;;;;;;24.61;72.37;100580.41;5006678;28;20649;-73
2021/07/12 10:36:58;;;;;;;5.97;5.38;;;;;;;24.60;70.73;100576.09;5009807;28;20300;-73
2021/07/12 10:40:12;;;;;;;5.63;5.13;;;;;;;24.73;73.26;100574.03;5009284;28;20308;-73
2021/07/12 10:42:56;;;;;;;5.40;4.97;;;;;;;24.82;72.56;100567.03;4946124;28;20211;-73
2021/07/12 10:45:34;;;;;;;4.82;4.43;;;;;;;25.08;71.05;100560.28;4944746;28;20262;-73
2021/07/12 10:48:05;;;;;;;4.93;4.50;;;;;;;24.98;68.33;100567.41;4983617;28;20226;-73
2021/07/12 10:50:50;;;;;;;5.45;4.93;;;;;;;25.01;66.57;100561.81;5006817;28;20667;-73
2021/07/12 10:53:39;;;;;;;5.30;4.80;;;;;;;24.82;65.50;100559.91;5008059;28;20196;-73
2021/07/12 10:56:21;;;;;;;5.32;4.82;;;;;;;24.87;70.48;100555.03;5003685;28;20247;-73
2021/07/12 10:58:53;;;;;;;5.47;4.90;;;;;;;24.60;69.74;100557.44;5004424;28;20466;-73
2021/07/12 11:01:43;;;;;;;5.00;4.60;;;;;;;24.63;69.08;100555.34;5013862;28;20201;-73
2021/07/12 11:04:37;;;;;;;4.57;4.20;;;;;;;24.63;68.22;100554.50;5002549;28;20225;-73
2021/07/12 11:07:06;;;;;;;4.63;4.22;;;;;;;24.54;68.44;100546.31;5005992;28;20589;-73
2021/07/12 11:09:51;;;;;;;4.85;4.45;;;;;;;24.69;69.88;100543.28;5007967;28;20209;-73
2021/07/12 11:12:38;;;;;;;5.57;5.00;;;;;;;24.58;72.32;100533.56;5006427;28;20301;-73
2021/07/12 11:15:26;;;;;;;4.97;4.55;;;;;;;24.76;68.57;100547.09;5000904;28;20593;-73
2021/07/12 11:18:01;;;;;;;4.82;4.43;;;;;;;24.86;67.19;100545.34;5004844;28;20224;-73
2021/07/12 11:20:51;;;;;;;4.82;4.43;;;;;;;24.85;68.91;100545.47;5003015;28;20209;-73
2021/07/12 11:23:47;;;;;;;5.18;4.78;;;;;;;24.71;72.13;100542.19;5003246;28;20205;-73
2021/07/12 11:26:37;;;;;;;5.00;4.60;;;;;;;24.53;75.97;100531.28;5003765;28;20413;-73
2021/07/12 11:29:14;;;;;;;4.78;4.38;;;;;;;24.50;69.18;100538.69;5004167;28;20212;-73